CYCK

Chatham Kent Airport

Chatham-Kent, Ontario, Canada
METAR CYCK 230723Z AUTO 10016KT 9SM BKN007 OVC014 01/M00 A3039 RMK SLP300
Observed Flight Rules
Feb-23 @ 07:23 UTC (39 minutes ago) Instrument Flight Rules
Wind Visibility Clouds
100° at 16 knots 9 miles
  • Broken at 700' AGL
  • Overcast at 1,400' AGL
Temperatures Readings
Current 1°C / 34°F
Dewpoint 0°C / 32°F
Humidity 93%
Altimeter 30.39" Hg
Pressure 1030 hPa
Elevation 198
METAR CYCK 230723Z AUTO 10016KT 9SM BKN007 OVC014 01/M00 A3039 RMK SLP300
Observed Flight Rules
Feb-23 @ 07:23 UTC
(39 minutes ago)
IFR
Wind Visibility
100° at 16 knots 9 miles
Clouds
  • Broken at 700' AGL
  • Overcast at 1,400' AGL
Temperature Dewpoint
1°C / 34°F 0°C / 32°F
Humidity Altimeter Pressure
93% 30.39" Hg 1030 hPa